createdAt,value
2023-05-20T00:00:03.289Z,75.5166
2023-05-20T00:01:11.622Z,74.9297
2023-05-20T00:02:19.466Z,74.9350
2023-05-20T00:03:27.758Z,75.4264
2023-05-20T00:04:35.647Z,75.2134
2023-05-20T00:05:44.007Z,75.4015
2023-05-20T00:06:51.825Z,75.8769
2023-05-20T00:07:59.750Z,75.9177
2023-05-20T00:09:07.811Z,77.2322
2023-05-20T00:10:15.872Z,77.2087
2023-05-20T00:11:23.851Z,77.1484
2023-05-20T00:12:31.861Z,76.2871
2023-05-20T00:13:39.952Z,77.1274
2023-05-20T00:14:48.132Z,76.4212
2023-05-20T00:15:56.356Z,76.4672
2023-05-20T00:17:04.312Z,76.2657
2023-05-20T00:18:12.490Z,75.8131
2023-05-20T00:19:20.448Z,75.6763
2023-05-20T00:20:28.500Z,75.7525
2023-05-20T00:21:36.730Z,76.0134
2023-05-20T00:22:44.611Z,77.6741
2023-05-20T00:23:52.721Z,78.0826
2023-05-20T00:25:00.722Z,77.7726
2023-05-20T00:26:08.698Z,78.8515
2023-05-20T00:27:16.722Z,78.7729
2023-05-20T00:28:24.789Z,78.0330
2023-05-20T00:29:32.941Z,77.2858
2023-05-20T00:30:41.076Z,76.8021
2023-05-20T00:31:49.185Z,76.8284
2023-05-20T00:32:57.274Z,77.1690
2023-05-20T00:34:05.235Z,77.2429
2023-05-20T00:35:13.380Z,78.7062
2023-05-20T00:36:21.357Z,78.4303
2023-05-20T00:37:29.508Z,78.0354
2023-05-20T00:38:37.652Z,79.4227
2023-05-20T00:39:45.581Z,80.2116
2023-05-20T00:40:53.493Z,80.2006
2023-05-20T00:42:01.593Z,79.8100
2023-05-20T00:43:09.649Z,80.4704
2023-05-20T00:44:17.853Z,80.4152
2023-05-20T00:45:25.886Z,79.9813
2023-05-20T00:46:34.146Z,79.7285
2023-05-20T00:47:41.942Z,80.2485
2023-05-20T00:48:50.097Z,80.7739
2023-05-20T00:49:58.188Z,80.0654
2023-05-20T00:51:06.229Z,80.1927
2023-05-20T00:52:14.378Z,80.7206
2023-05-20T00:53:22.361Z,80.9853
2023-05-20T00:54:30.466Z,81.0667
2023-05-20T00:55:38.355Z,81.5874
2023-05-20T00:56:46.406Z,81.6630
2023-05-20T00:57:54.515Z,81.5728
2023-05-20T00:59:02.705Z,81.8621
2023-05-20T01:00:10.926Z,81.1981
2023-05-20T01:01:18.807Z,81.5540
2023-05-20T01:02:26.980Z,81.6850
2023-05-20T01:03:34.996Z,82.0092
2023-05-20T01:04:43.009Z,82.1556
2023-05-20T01:05:51.113Z,82.2903
2023-05-20T01:06:59.120Z,82.3203
2023-05-20T01:08:07.237Z,82.5393
2023-05-20T01:09:15.261Z,82.5551
2023-05-20T01:10:23.203Z,83.0695
2023-05-20T01:11:31.251Z,83.1642
2023-05-20T01:12:39.332Z,83.3918
2023-05-20T01:13:47.651Z,83.8920
2023-05-20T01:14:55.661Z,83.9095
2023-05-20T01:16:03.746Z,84.0546
2023-05-20T01:17:11.791Z,84.1420
2023-05-20T01:18:19.953Z,84.3811
2023-05-20T01:19:27.975Z,84.1748
2023-05-20T01:20:36.193Z,84.0325
2023-05-20T01:21:44.085Z,84.3120
2023-05-20T01:22:52.160Z,84.1812
2023-05-20T01:24:00.163Z,83.7835
2023-05-20T01:25:08.093Z,84.2505
2023-05-20T01:26:16.163Z,84.2496
2023-05-20T01:27:24.228Z,83.5474
2023-05-20T01:28:32.617Z,83.4179
2023-05-20T01:29:40.484Z,84.0015
2023-05-20T01:30:48.571Z,84.0020
2023-05-20T01:31:56.722Z,83.4636
2023-05-20T01:33:04.744Z,83.4474
2023-05-20T01:34:12.805Z,83.6791
2023-05-20T01:35:20.824Z,83.5978
2023-05-20T01:36:28.909Z,83.0146
2023-05-20T01:37:36.938Z,82.5213
2023-05-20T01:38:45.054Z,82.3629
2023-05-20T01:39:52.929Z,82.1822
2023-05-20T01:41:00.975Z,82.2109
2023-05-20T01:42:09.033Z,82.3167
2023-05-20T01:43:17.816Z,82.9071
2023-05-20T01:44:25.523Z,83.4754
2023-05-20T01:45:33.526Z,83.4151
2023-05-20T01:46:41.512Z,83.8196
2023-05-20T01:47:49.630Z,84.2262
2023-05-20T01:48:57.407Z,84.1887
2023-05-20T01:50:05.633Z,83.9095
2023-05-20T01:51:13.880Z,83.7256
2023-05-20T01:52:21.858Z,84.2523
2023-05-20T01:53:29.821Z,84.6012
2023-05-20T01:54:37.874Z,84.4551
2023-05-20T01:55:46.062Z,84.6930
2023-05-20T01:56:54.045Z,84.9518
2023-05-20T01:58:01.944Z,85.3807
2023-05-20T01:59:09.995Z,85.4906
2023-05-20T02:00:18.051Z,85.5264
2023-05-20T02:01:26.497Z,85.6492
2023-05-20T02:02:34.384Z,85.9057
2023-05-20T02:03:42.555Z,86.0389
2023-05-20T02:04:50.437Z,86.2285
2023-05-20T02:05:58.633Z,86.6972
2023-05-20T02:07:06.609Z,87.0506
2023-05-20T02:08:14.749Z,87.3818
2023-05-20T02:09:22.684Z,87.5142
2023-05-20T02:10:30.792Z,87.6234
2023-05-20T02:11:38.920Z,87.8014
2023-05-20T02:12:46.752Z,88.0292
2023-05-20T02:13:54.823Z,88.1372
2023-05-20T02:15:02.898Z,88.0514
2023-05-20T02:16:11.155Z,88.0336
2023-05-20T02:17:19.203Z,88.1617
2023-05-20T02:18:27.270Z,87.8939
2023-05-20T02:19:35.303Z,87.6705
2023-05-20T02:20:43.375Z,87.4107
2023-05-20T02:21:51.425Z,87.3290
2023-05-20T02:22:59.552Z,87.5482
2023-05-20T02:24:07.499Z,88.0188
2023-05-20T02:25:15.834Z,88.3351
2023-05-20T02:26:23.653Z,88.5365
2023-05-20T02:27:31.607Z,88.4569
2023-05-20T02:28:39.691Z,88.1161
2023-05-20T02:29:47.717Z,88.1438
2023-05-20T02:30:55.887Z,88.2484
2023-05-20T02:32:03.971Z,88.3074
2023-05-20T02:33:12.250Z,88.0189
2023-05-20T02:34:20.121Z,87.7246
2023-05-20T02:35:28.152Z,87.5823
2023-05-20T02:36:36.320Z,87.0559
2023-05-20T02:37:44.498Z,86.5703
2023-05-20T02:38:52.359Z,86.2159
2023-05-20T02:40:00.467Z,85.9355
2023-05-20T02:41:08.550Z,85.7798
2023-05-20T02:42:16.472Z,86.1143
2023-05-20T02:43:24.506Z,86.2965
2023-05-20T02:44:32.568Z,86.1310
2023-05-20T02:45:40.925Z,85.8703
2023-05-20T02:46:48.900Z,85.6800
2023-05-20T02:47:56.945Z,85.7661
2023-05-20T02:49:05.018Z,86.4930
2023-05-20T02:50:12.883Z,86.9104
2023-05-20T02:51:21.094Z,87.1299
2023-05-20T02:52:29.292Z,87.3982
2023-05-20T02:53:37.199Z,87.7568
2023-05-20T02:54:45.262Z,87.8824
2023-05-20T02:55:53.352Z,87.9217
2023-05-20T02:57:01.255Z,88.0152
2023-05-20T02:58:09.556Z,87.9124
2023-05-20T02:59:17.429Z,87.6682
2023-05-20T03:00:25.611Z,87.3741
2023-05-20T03:01:33.738Z,87.4915
2023-05-20T03:02:41.939Z,87.6941
2023-05-20T03:03:49.913Z,87.8876
2023-05-20T03:04:57.846Z,87.8613
2023-05-20T03:06:05.943Z,87.7570
2023-05-20T03:07:14.037Z,87.8060
2023-05-20T03:08:22.113Z,87.8418
2023-05-20T03:09:30.103Z,87.8739
2023-05-20T03:10:38.212Z,88.0152
2023-05-20T03:11:46.126Z,88.2593
2023-05-20T03:12:54.266Z,88.4440
2023-05-20T03:14:02.270Z,88.5524
2023-05-20T03:15:10.593Z,88.5604
2023-05-20T03:16:18.731Z,88.5796
2023-05-20T03:17:26.597Z,88.6894
2023-05-20T03:18:34.703Z,88.8939
2023-05-20T03:19:42.982Z,89.0123
2023-05-20T03:20:50.776Z,89.1316
2023-05-20T03:21:58.852Z,89.2443
2023-05-20T03:23:07.005Z,89.4380
2023-05-20T03:24:15.088Z,89.6791
2023-05-20T03:25:23.003Z,89.7511
2023-05-20T03:26:30.992Z,89.6066
2023-05-20T03:27:39.020Z,89.5245
2023-05-20T03:28:47.139Z,89.3562
2023-05-20T03:29:55.273Z,89.3897
2023-05-20T03:31:03.564Z,89.5430
2023-05-20T03:32:11.512Z,89.6071
2023-05-20T03:33:19.543Z,89.5211
2023-05-20T03:34:27.557Z,89.3179
2023-05-20T03:35:35.924Z,89.1701
2023-05-20T03:36:43.706Z,89.0315
2023-05-20T03:37:51.868Z,88.9524
2023-05-20T03:38:59.871Z,88.8024
2023-05-20T03:40:07.900Z,88.6432
2023-05-20T03:41:15.833Z,88.6554
2023-05-20T03:42:23.886Z,88.7230
2023-05-20T03:43:31.991Z,88.6240
2023-05-20T03:44:40.169Z,88.5552
2023-05-20T03:45:48.232Z,88.6154
2023-05-20T03:46:56.473Z,88.5724
2023-05-20T03:48:04.351Z,88.5198
2023-05-20T03:49:12.464Z,88.6860
2023-05-20T03:50:20.500Z,88.7247
2023-05-20T03:51:28.752Z,88.6397
2023-05-20T03:52:36.572Z,88.7201
2023-05-20T03:53:44.899Z,88.4148
2023-05-20T03:54:52.589Z,88.3154
2023-05-20T03:56:00.665Z,88.1511
2023-05-20T03:57:08.723Z,87.7719
2023-05-20T03:58:16.905Z,87.4661
2023-05-20T03:59:25.004Z,87.3849
2023-05-20T04:00:33.037Z,87.4284
2023-05-20T04:01:41.285Z,87.5292
2023-05-20T04:02:49.310Z,87.6349
2023-05-20T04:03:57.485Z,87.7541
2023-05-20T04:05:05.407Z,88.1327
2023-05-20T04:06:13.489Z,88.2487
2023-05-20T04:07:21.402Z,88.0869
2023-05-20T04:08:29.548Z,87.9681
2023-05-20T04:09:37.426Z,87.9190
2023-05-20T04:10:45.511Z,87.8819
2023-05-20T04:11:53.576Z,87.9885
2023-05-20T04:13:01.803Z,88.1450
2023-05-20T04:14:09.819Z,88.2518
2023-05-20T04:15:17.933Z,88.4208
2023-05-20T04:16:26.282Z,88.5117
2023-05-20T04:17:34.175Z,88.6125
2023-05-20T04:18:42.128Z,88.7307
2023-05-20T04:19:50.208Z,88.7986
2023-05-20T04:20:58.204Z,88.9057
2023-05-20T04:22:06.256Z,89.0810
2023-05-20T04:23:14.348Z,89.0433
2023-05-20T04:24:22.249Z,89.0969
2023-05-20T04:25:30.334Z,89.0200
2023-05-20T04:26:38.388Z,89.1280
2023-05-20T04:27:46.631Z,89.2424
2023-05-20T04:28:54.611Z,89.3302
2023-05-20T04:30:02.762Z,89.1839
2023-05-20T04:31:10.865Z,88.8631
2023-05-20T04:32:18.873Z,88.4928
2023-05-20T04:33:27.042Z,88.1727
2023-05-20T04:34:34.982Z,87.6377
2023-05-20T04:35:43.177Z,87.4034
2023-05-20T04:36:51.062Z,87.6447
2023-05-20T04:37:59.109Z,88.5347
2023-05-20T04:39:07.092Z,88.7705
2023-05-20T04:40:15.126Z,88.9182
2023-05-20T04:41:23.164Z,88.7743
2023-05-20T04:42:31.471Z,88.3599
2023-05-20T04:43:39.430Z,87.7749
2023-05-20T04:44:47.525Z,87.7530
2023-05-20T04:45:55.567Z,87.8522
2023-05-20T04:47:03.635Z,87.7102
2023-05-20T04:48:11.739Z,87.7185
2023-05-20T04:49:19.945Z,87.9310
2023-05-20T04:50:27.861Z,87.8359
2023-05-20T04:51:35.920Z,87.8910
2023-05-20T04:52:43.979Z,87.9644
2023-05-20T04:53:51.902Z,87.2706
2023-05-20T04:55:00.028Z,87.5416
2023-05-20T04:56:08.048Z,87.4027
2023-05-20T04:57:16.422Z,87.3867
2023-05-20T04:58:24.445Z,87.0217
2023-05-20T04:59:32.391Z,87.0760
2023-05-20T05:00:40.379Z,86.1721
2023-05-20T05:01:48.618Z,86.1100
2023-05-20T05:02:56.663Z,85.8234
2023-05-20T05:04:04.545Z,85.1103
2023-05-20T05:05:12.989Z,84.7443
2023-05-20T05:06:20.733Z,85.1855
2023-05-20T05:07:28.755Z,85.5954
2023-05-20T05:08:36.702Z,85.6643
2023-05-20T05:09:44.835Z,85.0761
2023-05-20T05:10:52.864Z,84.6042
2023-05-20T05:12:01.044Z,84.9024
2023-05-20T05:13:09.094Z,85.3762
2023-05-20T05:14:17.331Z,85.0164
2023-05-20T05:15:25.279Z,84.6670
2023-05-20T05:16:33.512Z,84.5772
2023-05-20T05:17:41.427Z,83.6482
2023-05-20T05:18:49.458Z,84.1790
2023-05-20T05:19:57.537Z,83.6784
2023-05-20T05:21:05.573Z,83.7040
2023-05-20T05:22:13.739Z,83.8109
2023-05-20T05:23:21.534Z,83.1310
2023-05-20T05:24:29.671Z,82.6096
2023-05-20T05:25:37.767Z,81.9565
2023-05-20T05:26:45.973Z,82.0514
2023-05-20T05:27:53.995Z,81.4112
2023-05-20T05:29:02.072Z,81.4457
2023-05-20T05:30:10.309Z,81.7328
2023-05-20T05:31:18.185Z,82.2362
2023-05-20T05:32:26.476Z,82.2039
2023-05-20T05:33:34.338Z,82.7239
2023-05-20T05:34:42.351Z,82.2291
2023-05-20T05:35:50.691Z,82.0575
2023-05-20T05:36:58.523Z,82.5031
2023-05-20T05:38:06.453Z,82.7582
2023-05-20T05:39:14.516Z,82.5043
2023-05-20T05:40:22.617Z,80.6788
2023-05-20T05:41:30.796Z,80.2806
2023-05-20T05:42:38.819Z,79.2617
2023-05-20T05:43:46.924Z,79.0018
2023-05-20T05:44:54.938Z,79.4371
2023-05-20T05:46:03.236Z,79.5220
2023-05-20T05:47:11.175Z,79.0052
2023-05-20T05:48:19.131Z,78.5514
2023-05-20T05:49:27.408Z,79.2186
2023-05-20T05:50:35.244Z,78.1021
2023-05-20T05:51:43.572Z,77.5395
2023-05-20T05:52:51.208Z,77.9763
2023-05-20T05:53:59.310Z,78.2411
2023-05-20T05:55:07.373Z,78.0620
2023-05-20T05:56:15.616Z,77.6804
2023-05-20T05:57:23.624Z,77.8742
2023-05-20T05:58:31.804Z,77.7527
2023-05-20T05:59:39.737Z,78.1059
2023-05-20T06:00:47.937Z,77.8529
2023-05-20T06:01:56.162Z,76.9747
2023-05-20T06:03:04.102Z,76.2264
2023-05-20T06:04:12.063Z,76.3766
2023-05-20T06:05:20.056Z,78.2277
2023-05-20T06:06:28.183Z,78.9144
2023-05-20T06:07:36.059Z,79.0293
2023-05-20T06:08:44.130Z,78.7106
2023-05-20T06:09:52.202Z,76.1823
2023-05-20T06:11:00.449Z,75.8474
2023-05-20T06:12:08.481Z,75.7235
2023-05-20T06:13:16.832Z,74.4626
2023-05-20T06:14:24.573Z,75.6244
2023-05-20T06:15:32.789Z,76.1876
2023-05-20T06:16:40.779Z,75.3063
2023-05-20T06:17:48.904Z,74.6866
2023-05-20T06:18:56.956Z,75.0145
2023-05-20T06:20:04.864Z,75.2191
2023-05-20T06:21:13.004Z,76.0205
2023-05-20T06:22:20.868Z,76.9827
2023-05-20T06:23:28.951Z,78.1525
2023-05-20T06:24:36.977Z,77.2887
2023-05-20T06:25:45.186Z,76.7471
2023-05-20T06:26:53.222Z,76.6101
2023-05-20T06:28:01.403Z,76.1556
2023-05-20T06:29:09.402Z,76.6108
2023-05-20T06:30:17.521Z,76.7746
2023-05-20T06:31:25.576Z,77.1305
2023-05-20T06:32:33.678Z,78.0690
2023-05-20T06:33:41.722Z,76.8729
2023-05-20T06:34:49.824Z,77.2972
2023-05-20T06:35:57.928Z,77.2723
2023-05-20T06:37:05.712Z,77.6878
2023-05-20T06:38:13.810Z,76.2743
2023-05-20T06:39:21.831Z,75.4610
2023-05-20T06:40:30.039Z,75.5608
2023-05-20T06:41:38.128Z,74.7239
2023-05-20T06:42:46.109Z,74.0514
2023-05-20T06:43:54.285Z,74.3196
2023-05-20T06:45:02.282Z,74.8110
2023-05-20T06:46:10.350Z,74.9641
2023-05-20T06:47:18.402Z,75.6081
2023-05-20T06:48:26.504Z,74.4659
2023-05-20T06:49:34.489Z,75.5697
2023-05-20T06:50:42.639Z,75.2554
2023-05-20T06:51:50.502Z,75.8707
2023-05-20T06:52:58.615Z,76.8307
2023-05-20T06:54:06.687Z,77.4546
2023-05-20T06:55:14.868Z,77.6066
2023-05-20T06:56:22.871Z,77.0950
2023-05-20T06:57:30.949Z,75.8654
2023-05-20T06:58:39.054Z,76.0886
2023-05-20T06:59:47.054Z,77.5875
2023-05-20T07:00:55.109Z,78.4198
2023-05-20T07:02:03.324Z,78.6105
2023-05-20T07:03:11.262Z,77.0668
2023-05-20T07:04:19.372Z,76.1785
2023-05-20T07:05:27.435Z,75.9252
2023-05-20T07:06:35.280Z,75.0192
2023-05-20T07:07:43.367Z,75.2740
2023-05-20T07:08:51.414Z,75.1956
2023-05-20T07:09:59.646Z,76.3783
2023-05-20T07:11:07.532Z,75.6306
2023-05-20T07:12:15.603Z,75.5184
2023-05-20T07:13:23.791Z,75.1959
2023-05-20T07:14:31.879Z,74.6028
2023-05-20T07:15:39.899Z,74.4676
2023-05-20T07:16:48.108Z,74.2984
2023-05-20T07:17:56.095Z,74.8169
2023-05-20T07:19:04.166Z,74.9644
2023-05-20T07:20:12.234Z,75.0286
2023-05-20T07:21:20.081Z,74.7192
2023-05-20T07:22:28.167Z,74.5112
2023-05-20T07:23:36.216Z,76.3877
2023-05-20T07:24:44.411Z,75.0639
2023-05-20T07:25:52.466Z,73.7227
2023-05-20T07:27:00.549Z,73.8185
2023-05-20T07:28:08.574Z,73.0589
2023-05-20T07:29:16.645Z,72.8644
2023-05-20T07:30:24.795Z,73.1600
2023-05-20T07:31:32.798Z,73.2658
2023-05-20T07:32:41.033Z,73.6371
2023-05-20T07:33:48.940Z,73.7151
2023-05-20T07:34:56.987Z,72.9869
2023-05-20T07:36:04.917Z,73.3372
2023-05-20T07:37:12.933Z,72.4970
2023-05-20T07:38:20.989Z,72.3494
2023-05-20T07:39:29.088Z,72.1340
2023-05-20T07:40:37.120Z,73.9023
2023-05-20T07:41:45.411Z,73.0862
2023-05-20T07:42:53.315Z,72.8291
2023-05-20T07:44:01.406Z,72.3666
2023-05-20T07:45:09.457Z,71.3044
2023-05-20T07:46:19.355Z,71.2612
2023-05-20T07:47:30.477Z,72.7728
2023-05-20T07:48:38.537Z,72.5313
2023-05-20T07:49:46.600Z,72.2956
2023-05-20T07:50:54.621Z,72.7517
2023-05-20T07:52:03.165Z,73.5146
2023-05-20T07:53:10.704Z,73.1796
2023-05-20T07:54:18.706Z,71.2057
2023-05-20T07:55:26.935Z,70.8048
2023-05-20T07:56:34.966Z,71.4155
2023-05-20T07:57:44.726Z,71.9950
2023-05-20T07:58:55.937Z,72.0878
2023-05-20T08:00:04.024Z,71.8591
2023-05-20T08:01:12.072Z,70.9104
2023-05-20T08:02:20.172Z,70.6104
2023-05-20T08:03:28.293Z,71.7114
2023-05-20T08:04:36.304Z,72.7684
2023-05-20T08:05:44.170Z,71.6846
2023-05-20T08:06:52.221Z,71.5821
2023-05-20T08:08:00.296Z,71.2136
2023-05-20T08:09:08.677Z,71.6599
2023-05-20T08:10:16.531Z,70.9111
2023-05-20T08:11:24.588Z,71.0115
2023-05-20T08:12:32.667Z,70.1463
2023-05-20T08:13:40.954Z,70.0657
2023-05-20T08:14:48.750Z,70.7175
2023-05-20T08:15:57.020Z,71.8479
2023-05-20T08:17:04.924Z,73.3636
2023-05-20T08:18:13.096Z,74.5205
2023-05-20T08:19:21.057Z,73.8026
2023-05-20T08:20:28.927Z,72.1382
2023-05-20T08:21:36.998Z,71.5501
2023-05-20T08:22:45.058Z,70.5517
2023-05-20T08:23:53.263Z,70.4715
2023-05-20T08:25:01.250Z,70.1960
2023-05-20T08:26:09.216Z,70.4526
2023-05-20T08:27:17.446Z,69.9604
2023-05-20T08:28:25.473Z,70.3666
2023-05-20T08:29:33.778Z,71.5714
2023-05-20T08:30:41.871Z,71.6391
2023-05-20T08:31:49.657Z,70.7924
2023-05-20T08:32:57.717Z,69.9195
2023-05-20T08:34:05.969Z,69.0896
2023-05-20T08:35:13.754Z,69.2106
2023-05-20T08:36:21.816Z,69.3274
2023-05-20T08:37:29.825Z,68.6913
2023-05-20T08:38:38.014Z,68.0392
2023-05-20T08:39:46.135Z,68.7787
2023-05-20T08:40:54.027Z,69.6979
2023-05-20T08:42:02.204Z,69.2121
2023-05-20T08:43:10.274Z,68.9084
2023-05-20T08:44:18.338Z,69.3731
2023-05-20T08:45:26.503Z,70.0753
2023-05-20T08:46:34.483Z,70.9623
2023-05-20T08:47:42.501Z,69.9194
2023-05-20T08:48:50.637Z,70.0152
2023-05-20T08:49:58.485Z,71.3897
2023-05-20T08:51:06.575Z,70.8554
2023-05-20T08:52:14.611Z,71.8779
2023-05-20T08:53:22.760Z,72.3969
2023-05-20T08:54:30.856Z,72.0037
2023-05-20T08:55:39.188Z,73.5477
2023-05-20T08:56:46.975Z,72.2985
2023-05-20T08:57:54.888Z,72.9061
2023-05-20T08:59:03.104Z,72.5300
2023-05-20T09:00:11.054Z,74.1026
2023-05-20T09:01:19.237Z,73.0351
2023-05-20T09:02:27.332Z,74.0747
2023-05-20T09:03:35.336Z,74.8063
2023-05-20T09:04:43.293Z,74.2593
2023-05-20T09:05:51.313Z,73.4015
2023-05-20T09:06:59.333Z,72.5322
2023-05-20T09:08:07.555Z,72.3252
2023-05-20T09:09:15.453Z,73.5884
2023-05-20T09:10:23.751Z,73.6579
2023-05-20T09:11:31.646Z,73.3422
2023-05-20T09:12:39.764Z,74.2329
2023-05-20T09:13:47.851Z,73.2064
2023-05-20T09:14:55.890Z,72.1439
2023-05-20T09:16:04.055Z,72.4046
2023-05-20T09:17:12.209Z,71.4001
2023-05-20T09:18:20.073Z,72.1510
2023-05-20T09:19:28.023Z,73.5598
2023-05-20T09:20:36.071Z,73.8216
2023-05-20T09:21:44.107Z,73.8305
2023-05-20T09:22:52.236Z,73.0093
2023-05-20T09:24:00.339Z,73.3899
2023-05-20T09:25:08.373Z,73.3732
2023-05-20T09:26:16.463Z,72.7587
2023-05-20T09:27:24.474Z,72.5102
2023-05-20T09:28:32.896Z,73.9996
2023-05-20T09:29:40.595Z,73.6481
2023-05-20T09:30:48.718Z,73.1343
2023-05-20T09:31:56.814Z,72.9711
2023-05-20T09:33:04.933Z,73.1747
2023-05-20T09:34:12.856Z,72.3515
2023-05-20T09:35:20.900Z,71.9523
2023-05-20T09:36:28.962Z,71.6222
2023-05-20T09:37:37.162Z,71.4589
2023-05-20T09:38:45.175Z,71.4738
2023-05-20T09:39:53.293Z,71.4762
2023-05-20T09:41:01.290Z,70.3169
2023-05-20T09:42:09.478Z,69.0141
2023-05-20T09:43:17.442Z,68.2702
2023-05-20T09:44:25.454Z,68.6586
2023-05-20T09:45:33.711Z,70.4534
2023-05-20T09:46:41.745Z,70.4154
2023-05-20T09:47:49.703Z,67.5967
2023-05-20T09:48:57.662Z,65.9334
2023-05-20T09:50:05.648Z,65.1805
2023-05-20T09:51:13.771Z,65.2578
2023-05-20T09:52:21.787Z,65.1619
2023-05-20T09:53:29.948Z,65.5105
2023-05-20T09:54:38.084Z,65.2072
2023-05-20T09:55:46.088Z,65.7613
2023-05-20T09:56:54.243Z,65.3809
2023-05-20T09:58:02.239Z,64.1767
2023-05-20T09:59:10.282Z,63.8342
2023-05-20T10:00:18.319Z,64.9446
2023-05-20T10:01:26.527Z,66.0953
2023-05-20T10:02:34.627Z,64.4305
2023-05-20T10:03:44.144Z,64.9947
2023-05-20T10:04:55.395Z,64.6956
2023-05-20T10:06:03.377Z,65.7578
2023-05-20T10:07:11.456Z,65.6625
2023-05-20T10:08:19.656Z,65.4763
2023-05-20T10:09:27.749Z,65.3476
2023-05-20T10:10:35.788Z,64.7252
2023-05-20T10:11:43.815Z,64.3308
2023-05-20T10:12:51.937Z,63.8618
2023-05-20T10:13:59.994Z,63.3024
2023-05-20T10:15:07.983Z,63.6472
2023-05-20T10:16:16.131Z,64.8901
2023-05-20T10:17:24.166Z,65.2749
2023-05-20T10:18:32.233Z,64.5690
2023-05-20T10:19:40.326Z,66.3798
2023-05-20T10:20:48.348Z,66.2476
2023-05-20T10:21:56.275Z,67.9824
2023-05-20T10:23:04.336Z,67.9713
2023-05-20T10:24:12.399Z,68.9338
2023-05-20T10:25:20.579Z,69.5741
2023-05-20T10:26:28.603Z,71.2948
2023-05-20T10:27:36.655Z,68.5491
2023-05-20T10:28:44.770Z,70.0308
2023-05-20T10:29:52.863Z,68.5253
2023-05-20T10:31:00.904Z,68.4898
2023-05-20T10:32:08.984Z,68.3952
2023-05-20T10:33:17.091Z,67.9719
2023-05-20T10:34:25.078Z,67.0647
2023-05-20T10:35:33.276Z,67.2753
2023-05-20T10:36:42.723Z,66.9224
2023-05-20T10:37:49.159Z,68.1415
2023-05-20T10:38:57.260Z,69.0106
2023-05-20T10:40:05.403Z,68.5270
2023-05-20T10:41:13.517Z,67.8012
2023-05-20T10:42:21.526Z,69.3208
2023-05-20T10:43:29.598Z,68.8102
2023-05-20T10:44:37.674Z,67.4835
2023-05-20T10:45:45.769Z,68.1141
2023-05-20T10:47:13.215Z,67.9902
2023-05-20T10:48:06.732Z,68.3599
2023-05-20T10:49:14.765Z,68.0855
2023-05-20T10:50:22.695Z,67.7532
2023-05-20T10:51:30.785Z,68.5129
2023-05-20T10:52:38.815Z,68.6822
2023-05-20T10:53:47.013Z,68.3950
2023-05-20T10:54:55.148Z,68.1413
2023-05-20T10:56:03.138Z,68.8726
2023-05-20T10:57:11.368Z,67.2313
2023-05-20T10:58:19.265Z,68.1228
2023-05-20T10:59:27.434Z,66.4484
2023-05-20T11:00:35.657Z,65.5441
2023-05-20T11:01:43.666Z,65.2237
2023-05-20T11:02:51.524Z,65.0462
2023-05-20T11:03:59.836Z,66.6924
2023-05-20T11:05:07.534Z,67.1429
2023-05-20T11:06:17.622Z,66.0291
2023-05-20T11:07:28.652Z,66.4280
2023-05-20T11:08:36.632Z,68.3545
2023-05-20T11:09:44.745Z,66.5504
2023-05-20T11:10:52.911Z,67.0351
2023-05-20T11:12:00.843Z,66.0416
2023-05-20T11:13:08.968Z,65.8179
2023-05-20T11:14:17.112Z,65.4119
2023-05-20T11:15:25.091Z,64.2116
2023-05-20T11:16:33.251Z,64.8944
2023-05-20T11:17:41.426Z,65.8918
2023-05-20T11:18:49.155Z,65.1934
2023-05-20T11:19:57.244Z,64.5185
2023-05-20T11:21:05.314Z,63.9691
2023-05-20T11:22:13.403Z,63.4079
2023-05-20T11:23:21.505Z,63.8193
2023-05-20T11:24:29.595Z,65.0554
2023-05-20T11:25:37.665Z,66.7245
2023-05-20T11:26:45.644Z,66.4190
2023-05-20T11:27:53.801Z,65.5600
2023-05-20T11:29:01.875Z,66.2514
2023-05-20T11:30:09.838Z,63.3539
2023-05-20T11:31:17.973Z,62.2141
2023-05-20T11:32:26.066Z,61.4126
2023-05-20T11:33:33.905Z,60.2357
2023-05-20T11:34:41.983Z,59.9799
2023-05-20T11:35:50.009Z,60.4636
2023-05-20T11:36:58.241Z,61.1602
2023-05-20T11:38:06.291Z,59.5799
2023-05-20T11:39:14.485Z,60.9737
2023-05-20T11:40:22.383Z,59.0727
2023-05-20T11:41:30.442Z,60.8665
2023-05-20T11:42:38.544Z,60.1682
2023-05-20T11:43:46.551Z,58.5866
2023-05-20T11:44:54.606Z,57.7923
2023-05-20T11:46:02.802Z,56.7715
2023-05-20T11:47:10.839Z,58.8406
2023-05-20T11:48:18.697Z,57.4498
2023-05-20T11:49:26.758Z,58.8266
2023-05-20T11:50:35.079Z,57.7951
2023-05-20T11:51:43.414Z,59.6732
2023-05-20T11:52:51.091Z,60.7457
2023-05-20T11:53:59.145Z,57.7466
2023-05-20T11:55:07.214Z,57.7554
2023-05-20T11:56:15.292Z,59.3988
2023-05-20T11:57:23.319Z,59.0828
2023-05-20T11:58:31.442Z,58.1233
2023-05-20T11:59:39.695Z,56.9673
2023-05-20T12:00:51.640Z,56.2843
2023-05-20T12:02:00.322Z,56.0800
2023-05-20T12:03:08.469Z,56.3075
2023-05-20T12:04:16.517Z,57.7216
2023-05-20T12:05:24.632Z,60.4713
2023-05-20T12:06:32.752Z,58.3411
2023-05-20T12:07:40.752Z,57.7562
2023-05-20T12:08:48.796Z,57.7805
2023-05-20T12:09:56.834Z,59.4891
2023-05-20T12:11:04.910Z,59.9360
2023-05-20T12:12:13.074Z,60.3730
2023-05-20T12:13:21.130Z,59.5625
2023-05-20T12:14:29.178Z,59.2171
2023-05-20T12:15:37.228Z,58.1772
2023-05-20T12:16:45.168Z,58.3156
2023-05-20T12:17:53.253Z,59.2717
2023-05-20T12:19:01.265Z,60.1750
2023-05-20T12:20:09.396Z,59.2090
2023-05-20T12:21:17.530Z,59.3232
2023-05-20T12:22:25.604Z,61.1824
2023-05-20T12:23:33.613Z,59.3282
2023-05-20T12:24:41.813Z,58.1367
2023-05-20T12:25:49.699Z,56.8946
2023-05-20T12:26:57.931Z,55.7092
2023-05-20T12:28:05.822Z,56.4305
2023-05-20T12:29:13.976Z,56.6452
2023-05-20T12:30:22.001Z,58.2515
2023-05-20T12:31:31.871Z,55.5770
2023-05-20T12:32:42.896Z,56.3887
2023-05-20T12:33:50.919Z,56.0019
2023-05-20T12:34:58.942Z,58.4129
2023-05-20T12:36:07.275Z,57.5461
2023-05-20T12:37:15.290Z,56.1555
2023-05-20T12:38:23.299Z,57.8336
2023-05-20T12:39:31.287Z,57.1976
2023-05-20T12:40:39.403Z,55.6090
2023-05-20T12:41:47.538Z,55.0995
2023-05-20T12:42:55.521Z,57.0194
2023-05-20T12:44:03.540Z,57.5209
2023-05-20T12:45:11.797Z,57.5637
2023-05-20T12:46:19.709Z,56.9238
2023-05-20T12:47:27.677Z,57.3592
2023-05-20T12:48:35.700Z,58.7155
2023-05-20T12:49:43.788Z,58.9141
2023-05-20T12:50:52.023Z,56.9349
2023-05-20T12:52:03.427Z,57.6503
2023-05-20T12:53:12.988Z,60.0222
2023-05-20T12:54:21.011Z,59.2155
2023-05-20T12:55:29.012Z,62.3082
2023-05-20T12:56:37.427Z,62.1304
2023-05-20T12:57:45.239Z,62.3582
2023-05-20T12:58:53.273Z,61.5601
2023-05-20T13:00:01.497Z,61.9244
2023-05-20T13:01:09.251Z,61.6616
2023-05-20T13:02:17.337Z,60.8684
2023-05-20T13:03:25.449Z,60.8398
2023-05-20T13:04:33.538Z,59.1346
2023-05-20T13:05:41.651Z,57.6550
2023-05-20T13:06:49.671Z,56.9710
2023-05-20T13:07:57.952Z,56.1402
2023-05-20T13:09:05.811Z,57.9472
2023-05-20T13:10:13.885Z,56.2259
2023-05-20T13:11:21.921Z,56.2196
2023-05-20T13:12:29.984Z,57.4235
2023-05-20T13:13:38.125Z,58.3000
2023-05-20T13:14:46.163Z,58.5888
2023-05-20T13:15:54.068Z,57.1507
2023-05-20T13:17:02.235Z,56.9172
2023-05-20T13:18:10.298Z,56.2466
2023-05-20T13:19:18.420Z,57.7156
2023-05-20T13:20:26.472Z,57.0647
2023-05-20T13:21:34.452Z,57.0935
2023-05-20T13:22:42.676Z,57.7648
2023-05-20T13:23:50.777Z,58.9971
2023-05-20T13:24:58.690Z,60.6007
2023-05-20T13:26:06.740Z,58.7694
2023-05-20T13:27:14.852Z,59.0661
2023-05-20T13:28:22.839Z,59.4444
2023-05-20T13:29:30.943Z,58.2676
2023-05-20T13:30:39.137Z,58.5475
2023-05-20T13:31:46.941Z,58.5456
2023-05-20T13:32:55.089Z,59.2181
2023-05-20T13:34:03.297Z,59.6693
2023-05-20T13:35:11.314Z,61.1433
2023-05-20T13:36:19.335Z,58.6232
2023-05-20T13:37:27.516Z,59.0489
2023-05-20T13:38:37.243Z,59.8491
2023-05-20T13:39:48.572Z,60.6133
2023-05-20T13:40:56.561Z,58.7168
2023-05-20T13:42:04.550Z,60.5030
2023-05-20T13:43:12.698Z,60.9111